Time;durP1;ratioP1;P1;durP2;ratioP2;P2;SDS_P1;SDS_P2;PMS_P1;PMS_P2;Temp;Humidity;BMP_temperature;BMP_pressure;BME280_temperature;BME280_humidity;BME280_pressure;Samples;Min_cycle;Max_cycle;Signal;HPM_P1;HPM_P2
2023/01/31 00:00:56;;;;;;;26.27;4.22;;;3.90;99.90;;;;;;5050367;28;20116;-72
2023/01/31 00:03:22;;;;;;;26.90;4.30;;;3.80;99.90;;;;;;5040938;28;20084;-73
2023/01/31 00:05:48;;;;;;;26.35;4.45;;;3.80;99.90;;;;;;5050162;28;20060;-72
2023/01/31 00:08:14;;;;;;;25.63;3.88;;;3.80;99.90;;;;;;5050585;28;20049;-73
2023/01/31 00:10:40;;;;;;;27.63;4.18;;;3.80;99.90;;;;;;5050222;28;20036;-72
2023/01/31 00:13:06;;;;;;;21.33;3.53;;;3.80;99.90;;;;;;5052077;28;20037;-73
2023/01/31 00:15:31;;;;;;;29.20;4.97;;;3.80;99.90;;;;;;5050841;28;20040;-72
2023/01/31 00:17:57;;;;;;;24.35;3.47;;;3.80;99.90;;;;;;5047164;28;20083;-72
2023/01/31 00:20:23;;;;;;;24.75;4.20;;;3.70;99.90;;;;;;5034858;28;20139;-72
2023/01/31 00:22:48;;;;;;;24.05;4.20;;;3.70;99.90;;;;;;5038047;28;20044;-72
2023/01/31 00:25:14;;;;;;;28.65;5.35;;;3.70;99.90;;;;;;5047495;28;20041;-72
2023/01/31 00:27:39;;;;;;;23.52;4.45;;;3.70;99.90;;;;;;5050186;28;20059;-72
2023/01/31 00:30:06;;;;;;;21.48;3.92;;;3.70;99.90;;;;;;5051888;28;20040;-72
2023/01/31 00:32:31;;;;;;;27.10;4.53;;;3.70;99.90;;;;;;5049692;28;20045;-72
2023/01/31 00:34:57;;;;;;;21.48;3.47;;;3.80;99.90;;;;;;5047599;28;20424;-72
2023/01/31 00:37:23;;;;;;;29.77;4.15;;;3.70;99.90;;;;;;5048912;28;20072;-73
2023/01/31 00:39:48;;;;;;;25.92;3.90;;;3.70;99.90;;;;;;5048966;28;20103;-72
2023/01/31 00:42:14;;;;;;;20.52;3.65;;;3.70;99.90;;;;;;5045901;28;20054;-72
2023/01/31 00:44:39;;;;;;;21.02;3.45;;;3.70;99.90;;;;;;5049517;28;20045;-72
2023/01/31 00:47:05;;;;;;;32.72;4.63;;;3.70;99.90;;;;;;5042262;28;20036;-72
2023/01/31 00:49:31;;;;;;;21.63;3.85;;;3.60;99.90;;;;;;5051764;28;20049;-72
2023/01/31 00:51:56;;;;;;;24.25;3.88;;;3.60;99.90;;;;;;5050306;28;20060;-73
2023/01/31 00:54:22;;;;;;;22.23;3.60;;;3.60;99.90;;;;;;5050928;28;20056;-73
2023/01/31 00:56:47;;;;;;;17.63;3.30;;;3.60;99.90;;;;;;5050320;28;20060;-72
2023/01/31 00:59:13;;;;;;;22.83;3.78;;;3.50;99.90;;;;;;5047109;28;20056;-72
2023/01/31 01:01:39;;;;;;;21.77;3.83;;;3.50;99.90;;;;;;5049811;28;20045;-72
2023/01/31 01:04:05;;;;;;;23.52;3.55;;;3.50;99.90;;;;;;5049930;28;20044;-72
2023/01/31 01:06:31;;;;;;;20.63;3.40;;;3.50;99.90;;;;;;5048014;28;20048;-72
2023/01/31 01:08:58;;;;;;;24.40;3.58;;;3.50;99.90;;;;;;5049005;28;20097;-72
2023/01/31 01:11:29;;;;;;;23.88;3.78;;;3.50;99.90;;;;;;5038401;28;20040;-72
2023/01/31 01:13:56;;;;;;;26.65;4.72;;;3.50;99.90;;;;;;5050819;28;20041;-72
2023/01/31 01:16:26;;;;;;;27.08;4.47;;;3.40;99.90;;;;;;5048166;28;20053;-72
2023/01/31 01:18:53;;;;;;;24.08;3.65;;;3.40;99.90;;;;;;5049468;28;20048;-72
2023/01/31 01:21:22;;;;;;;27.00;4.10;;;3.40;99.90;;;;;;5046576;28;20494;-72
2023/01/31 01:23:48;;;;;;;23.90;3.85;;;3.40;99.90;;;;;;5045035;28;20037;-72
2023/01/31 01:26:16;;;;;;;26.25;4.38;;;3.40;99.90;;;;;;5041556;28;20045;-73
2023/01/31 01:28:42;;;;;;;;;;;3.40;99.90;;;;;;5044384;28;20036;-73
2023/01/31 01:31:09;;;;;;;25.95;3.70;;;3.30;99.90;;;;;;5050761;28;19967;-73
2023/01/31 01:33:36;;;;;;;23.35;4.30;;;3.30;99.90;;;;;;5050283;28;20051;-73
2023/01/31 01:36:03;;;;;;;23.67;4.05;;;3.30;99.90;;;;;;5048320;28;20514;-73
2023/01/31 01:38:29;;;;;;;19.23;3.50;;;3.30;99.90;;;;;;5049911;28;20132;-72
2023/01/31 01:40:55;;;;;;;19.40;4.13;;;3.40;99.90;;;;;;5048821;28;20476;-72
2023/01/31 01:43:37;;;;;;;25.92;4.72;;;3.30;99.90;;;;;;5031448;28;20041;-72
2023/01/31 01:46:03;;;;;;;26.27;3.65;;;3.30;99.90;;;;;;5037712;28;20119;-72
2023/01/31 01:48:29;;;;;;;25.20;4.05;;;3.30;99.90;;;;;;5048329;28;20111;-73
2023/01/31 01:50:54;;;;;;;21.27;3.97;;;3.30;99.90;;;;;;5049841;28;20480;-73
2023/01/31 01:53:23;;;;;;;27.92;3.80;;;3.30;99.90;;;;;;5050143;28;20397;-72
2023/01/31 01:55:56;;;;;;;21.10;3.60;;;3.30;99.90;;;;;;5049354;28;20045;-72
2023/01/31 01:58:55;;;;;;;24.10;4.28;;;3.30;99.90;;;;;;5047930;28;20099;-72
2023/01/31 02:01:21;;;;;;;18.92;2.97;;;3.30;99.90;;;;;;5043806;28;20080;-73
2023/01/31 02:03:49;;;;;;;23.48;3.15;;;3.30;99.90;;;;;;5044900;28;20049;-72
2023/01/31 02:06:15;;;;;;;22.42;3.00;;;3.30;99.90;;;;;;5032653;28;20046;-71
2023/01/31 02:08:42;;;;;;;22.70;3.15;;;3.30;99.90;;;;;;5040696;28;20480;-73
2023/01/31 02:11:14;;;;;;;20.70;3.08;;;3.30;99.90;;;;;;5043704;28;20084;-72
2023/01/31 02:13:41;;;;;;;20.20;3.33;;;3.30;99.90;;;;;;5049759;28;20055;-72
2023/01/31 02:16:07;;;;;;;20.45;3.75;;;3.30;99.90;;;;;;5047544;28;20045;-72
2023/01/31 02:18:33;;;;;;;22.77;4.03;;;3.30;99.90;;;;;;5047743;28;20496;-73
2023/01/31 02:21:29;;;;;;;18.17;3.13;;;3.30;99.90;;;;;;5047663;28;20459;-72
2023/01/31 02:24:26;;;;;;;17.88;3.22;;;3.30;99.90;;;;;;5045736;28;20049;-72
2023/01/31 02:27:43;;;;;;;19.08;2.90;;;3.30;99.90;;;;;;5043965;28;20060;-72
2023/01/31 02:30:33;;;;;;;17.67;2.85;;;3.30;99.90;;;;;;5032666;28;20140;-72
2023/01/31 02:33:16;;;;;;;18.98;3.10;;;3.30;99.90;;;;;;5037613;28;20396;-73
2023/01/31 02:36:17;;;;;;;30.20;3.95;;;3.30;99.90;;;;;;5049563;28;20095;-72
2023/01/31 02:39:10;;;;;;;23.92;3.92;;;3.40;99.90;;;;;;5045428;28;20049;-73
2023/01/31 02:41:50;;;;;;;17.50;3.42;;;3.40;99.90;;;;;;5045221;28;20053;-73
2023/01/31 02:47:18;;;;;;;22.23;3.22;;;3.40;99.90;;;;;;5047538;28;20049;-72
2023/01/31 02:49:50;;;;;;;20.63;3.17;;;3.40;99.90;;;;;;5048080;28;20056;-72
2023/01/31 02:52:33;;;;;;;22.23;3.03;;;3.40;99.90;;;;;;5047428;28;20041;-73
2023/01/31 02:58:06;;;;;;;19.85;3.08;;;3.50;99.90;;;;;;5033104;28;20052;-73
2023/01/31 03:00:34;;;;;;;18.73;2.63;;;3.50;99.90;;;;;;5041992;28;20435;-72
2023/01/31 03:03:16;;;;;;;17.23;2.90;;;3.60;99.90;;;;;;5053032;28;20044;-73
2023/01/31 03:05:42;;;;;;;19.50;3.53;;;3.60;99.90;;;;;;5049286;28;20052;-73
2023/01/31 03:08:09;;;;;;;22.15;3.20;;;3.60;99.90;;;;;;5049271;28;20061;-73
2023/01/31 03:10:51;;;;;;;16.58;3.30;;;3.50;99.90;;;;;;5050537;28;20076;-73
2023/01/31 03:13:32;;;;;;;15.25;3.17;;;3.60;99.90;;;;;;5052589;28;20081;-73
2023/01/31 03:19:21;;;;;;;19.92;3.95;;;3.60;99.90;;;;;;5032539;28;20073;-72
2023/01/31 03:21:52;;;;;;;14.52;3.17;;;3.60;99.90;;;;;;5045026;28;20044;-71
2023/01/31 03:24:18;;;;;;;18.55;3.30;;;3.60;99.90;;;;;;5044879;28;20053;-72
2023/01/31 03:26:45;;;;;;;22.27;4.07;;;3.60;99.90;;;;;;5049409;28;20523;-72
2023/01/31 03:29:15;;;;;;;21.23;4.38;;;3.60;99.90;;;;;;5051082;28;21116;-72
2023/01/31 03:31:57;;;;;;;17.10;2.90;;;3.60;99.90;;;;;;5051214;28;20427;-72
2023/01/31 03:34:23;;;;;;;18.40;2.80;;;3.60;99.90;;;;;;5050134;28;20053;-72
2023/01/31 03:37:11;;;;;;;19.02;3.65;;;3.60;99.90;;;;;;5050761;28;20153;-72
2023/01/31 03:39:40;;;;;;;;;;;3.60;99.90;;;;;;5050141;28;20124;-72
2023/01/31 03:42:12;;;;;;;20.02;3.67;;;3.60;99.90;;;;;;5041895;28;19920;-72
2023/01/31 03:44:54;;;;;;;14.93;3.15;;;3.60;99.90;;;;;;5049042;28;20060;-72
2023/01/31 03:47:36;;;;;;;24.55;3.80;;;3.60;99.90;;;;;;5047928;28;20060;-72
2023/01/31 03:50:07;;;;;;;19.83;3.20;;;3.60;99.90;;;;;;5050613;28;20053;-72
2023/01/31 03:52:40;;;;;;;18.92;3.92;;;3.60;99.90;;;;;;5066958;28;20095;-72
2023/01/31 03:55:13;;;;;;;15.25;3.25;;;3.60;99.90;;;;;;5048347;28;20110;-72
2023/01/31 03:57:42;;;;;;;20.23;3.55;;;3.70;99.90;;;;;;5043102;28;20248;-72
2023/01/31 04:00:13;;;;;;;23.17;4.25;;;3.70;99.90;;;;;;5032396;28;20057;-72
2023/01/31 04:02:40;;;;;;;17.83;2.90;;;3.70;99.90;;;;;;5050076;28;20052;-72
2023/01/31 04:05:20;;;;;;;17.80;3.90;;;3.70;99.90;;;;;;5051485;28;20060;-72
2023/01/31 04:07:46;;;;;;;17.67;3.17;;;3.70;99.90;;;;;;5051583;28;20159;-72
2023/01/31 04:10:18;;;;;;;19.20;3.72;;;3.80;99.90;;;;;;5050884;28;20115;-72
2023/01/31 04:12:44;;;;;;;23.13;3.63;;;3.80;99.90;;;;;;5050336;28;20070;-72
2023/01/31 04:15:11;;;;;;;18.60;3.43;;;3.80;99.90;;;;;;5048836;28;20039;-72
2023/01/31 04:17:36;;;;;;;18.27;3.67;;;3.80;99.90;;;;;;5042114;28;20624;-71
2023/01/31 04:20:04;;;;;;;19.77;3.30;;;3.90;99.90;;;;;;5050793;28;20151;-73
2023/01/31 04:22:30;;;;;;;17.20;3.28;;;3.90;99.90;;;;;;5044432;28;20391;-72
2023/01/31 04:24:56;;;;;;;21.77;4.45;;;3.90;99.90;;;;;;5048941;28;20052;-72
2023/01/31 04:27:21;;;;;;;21.50;3.70;;;3.90;99.90;;;;;;5048427;28;20049;-72
2023/01/31 04:29:47;;;;;;;19.70;3.15;;;3.90;99.90;;;;;;5047390;28;20132;-74
2023/01/31 04:32:13;;;;;;;17.27;3.83;;;3.90;99.90;;;;;;5039513;28;20037;-73
2023/01/31 04:34:38;;;;;;;23.10;4.63;;;4.00;99.90;;;;;;5050806;28;20041;-73
2023/01/31 04:37:04;;;;;;;25.17;4.22;;;4.00;99.90;;;;;;5038552;28;20049;-73
2023/01/31 04:39:30;;;;;;;20.83;4.95;;;4.00;99.90;;;;;;5049310;28;20056;-72
2023/01/31 04:41:55;;;;;;;20.88;4.10;;;4.00;99.90;;;;;;5051726;28;20080;-73
2023/01/31 04:44:21;;;;;;;20.40;3.97;;;4.00;99.90;;;;;;5046651;28;20056;-72
2023/01/31 04:46:46;;;;;;;18.83;4.72;;;4.00;99.90;;;;;;5045542;28;20076;-72
2023/01/31 04:49:13;;;;;;;20.90;4.25;;;4.00;99.90;;;;;;5052853;28;20514;-72
2023/01/31 04:51:39;;;;;;;26.77;4.60;;;4.10;99.90;;;;;;5051089;28;20102;-73
2023/01/31 04:54:04;;;;;;;27.40;5.00;;;4.10;99.90;;;;;;5052371;28;20037;-73
2023/01/31 04:56:31;;;;;;;22.70;4.82;;;4.10;99.90;;;;;;5050117;28;20048;-73
2023/01/31 04:58:57;;;;;;;19.70;4.65;;;4.10;99.90;;;;;;5049610;28;20098;-73
2023/01/31 05:01:23;;;;;;;27.42;5.50;;;4.10;99.90;;;;;;5048094;28;20044;-73
2023/01/31 05:03:48;;;;;;;24.90;4.80;;;4.10;99.90;;;;;;5040227;28;20096;-73
2023/01/31 05:06:14;;;;;;;24.73;4.75;;;4.20;99.90;;;;;;5039497;28;20045;-73
2023/01/31 05:08:40;;;;;;;30.33;5.22;;;4.20;99.90;;;;;;5049894;28;20484;-73
2023/01/31 05:11:07;;;;;;;26.08;5.00;;;4.20;99.90;;;;;;5050633;28;20110;-72
2023/01/31 05:13:37;;;;;;;20.25;5.22;;;4.20;99.90;;;;;;5050581;28;20048;-73
2023/01/31 05:16:09;;;;;;;23.83;5.07;;;4.20;99.90;;;;;;5047782;28;20134;-73
2023/01/31 05:18:35;;;;;;;29.92;6.43;;;4.20;99.90;;;;;;5048602;28;20401;-72
2023/01/31 05:21:02;;;;;;;22.77;4.95;;;4.20;99.90;;;;;;5050028;28;20131;-72
2023/01/31 05:23:29;;;;;;;31.03;5.17;;;4.30;99.90;;;;;;5051381;28;20332;-72
2023/01/31 05:25:56;;;;;;;28.00;5.20;;;4.30;99.90;;;;;;5047866;28;20495;-72
2023/01/31 05:28:22;;;;;;;25.13;4.72;;;4.30;99.90;;;;;;5048636;28;20118;-73
2023/01/31 05:30:48;;;;;;;27.42;6.22;;;4.30;99.90;;;;;;5043999;28;20045;-72
2023/01/31 05:33:14;;;;;;;30.10;5.13;;;4.30;99.90;;;;;;5030807;28;20059;-72
2023/01/31 05:35:41;;;;;;;23.08;5.72;;;4.40;99.90;;;;;;5034983;28;20041;-72
2023/01/31 05:38:08;;;;;;;27.48;5.68;;;4.40;99.90;;;;;;5049589;28;20061;-72
2023/01/31 05:40:34;;;;;;;29.20;6.43;;;4.40;99.90;;;;;;5046985;28;21749;-73
2023/01/31 05:43:00;;;;;;;23.98;5.55;;;4.40;99.90;;;;;;5033525;28;20116;-72
2023/01/31 05:45:26;;;;;;;34.25;6.95;;;4.40;99.90;;;;;;5046484;28;20057;-72
2023/01/31 05:47:53;;;;;;;26.40;6.28;;;4.50;99.90;;;;;;5045854;28;20095;-72
2023/01/31 05:50:19;;;;;;;31.08;6.97;;;4.50;99.90;;;;;;5047087;28;20045;-73
2023/01/31 05:52:50;;;;;;;24.92;7.20;;;4.50;99.90;;;;;;5049191;28;20091;-73
2023/01/31 05:55:15;;;;;;;26.75;6.50;;;4.60;99.90;;;;;;5035629;28;20119;-72
2023/01/31 05:57:41;;;;;;;29.38;7.28;;;4.60;99.90;;;;;;5051285;28;20132;-71
2023/01/31 06:00:07;;;;;;;37.28;7.47;;;4.50;99.90;;;;;;5048741;28;20049;-73
2023/01/31 06:02:33;;;;;;;24.88;6.80;;;4.60;99.90;;;;;;5049811;28;20036;-72
2023/01/31 06:04:58;;;;;;;27.60;7.13;;;4.60;99.90;;;;;;5050279;28;20067;-73
2023/01/31 06:07:24;;;;;;;30.83;6.88;;;4.60;99.90;;;;;;5044083;28;20451;-73
2023/01/31 06:09:50;;;;;;;28.75;7.40;;;4.60;99.90;;;;;;5062289;28;20057;-72
2023/01/31 06:12:15;;;;;;;34.33;8.20;;;4.70;99.90;;;;;;5046994;28;20045;-73
2023/01/31 06:14:41;;;;;;;33.33;7.75;;;4.70;99.90;;;;;;5034140;28;20409;-72
2023/01/31 06:17:07;;;;;;;31.63;7.38;;;4.70;99.90;;;;;;5045322;28;20065;-72
2023/01/31 06:19:32;;;;;;;37.28;8.70;;;4.70;99.90;;;;;;5043578;28;20106;-73
2023/01/31 06:21:58;;;;;;;29.42;8.38;;;4.80;99.90;;;;;;5044231;28;20042;-72
2023/01/31 06:24:23;;;;;;;34.42;9.48;;;4.80;99.90;;;;;;5042929;28;20178;-73
2023/01/31 06:26:49;;;;;;;33.83;9.63;;;4.80;99.90;;;;;;5049497;28;20041;-72
2023/01/31 06:29:15;;;;;;;34.95;10.98;;;4.90;99.90;;;;;;5047361;28;20507;-72
2023/01/31 06:31:44;;;;;;;40.58;10.77;;;5.00;99.90;;;;;;5041207;28;20393;-73
2023/01/31 06:34:10;;;;;;;41.53;10.85;;;5.00;99.90;;;;;;5045997;28;20036;-73
2023/01/31 06:36:36;;;;;;;42.17;11.57;;;5.00;99.90;;;;;;5045851;28;20053;-73
2023/01/31 06:39:03;;;;;;;45.10;12.13;;;5.00;99.90;;;;;;5052432;28;20416;-72
2023/01/31 06:41:29;;;;;;;35.38;12.40;;;5.10;99.90;;;;;;5053001;28;20442;-73
2023/01/31 06:43:55;;;;;;;37.22;11.95;;;5.10;99.90;;;;;;5053703;28;20435;-73
2023/01/31 06:46:20;;;;;;;37.05;11.70;;;5.10;99.90;;;;;;5053596;28;20092;-73
2023/01/31 06:48:47;;;;;;;37.00;11.85;;;5.20;99.90;;;;;;5054808;28;20045;-73
2023/01/31 06:51:14;;;;;;;47.30;13.23;;;5.20;99.90;;;;;;5047674;28;20053;-72
2023/01/31 06:53:39;;;;;;;37.72;11.13;;;5.30;99.90;;;;;;5054751;28;20045;-73
2023/01/31 06:56:06;;;;;;;37.72;12.95;;;5.30;99.90;;;;;;5053696;28;20049;-72
2023/01/31 06:58:32;;;;;;;39.65;13.57;;;5.30;99.90;;;;;;5053058;28;20476;-73
2023/01/31 07:01:04;;;;;;;39.03;12.82;;;5.30;99.90;;;;;;5048342;28;20389;-72
2023/01/31 07:03:30;;;;;;;36.53;11.50;;;5.40;99.90;;;;;;5054405;28;20474;-73
2023/01/31 07:05:55;;;;;;;36.67;12.27;;;5.40;99.90;;;;;;5052177;28;20124;-72
2023/01/31 07:08:21;;;;;;;36.85;12.35;;;5.30;99.90;;;;;;5052622;28;20052;-73
2023/01/31 07:10:47;;;;;;;41.30;11.23;;;5.30;99.90;;;;;;5052421;28;20116;-73
2023/01/31 07:13:13;;;;;;;40.00;11.60;;;5.40;99.90;;;;;;5052011;28;20430;-73
2023/01/31 07:15:39;;;;;;;38.55;11.75;;;5.40;99.90;;;;;;5051832;28;20061;-73
2023/01/31 07:18:05;;;;;;;34.30;10.88;;;5.40;99.90;;;;;;5051671;28;20045;-72
2023/01/31 07:20:31;;;;;;;32.30;10.55;;;5.40;99.90;;;;;;5041963;28;20060;-73
2023/01/31 07:22:57;;;;;;;31.70;10.80;;;5.40;99.90;;;;;;5047766;28;20044;-73
2023/01/31 07:25:24;;;;;;;29.73;9.73;;;5.40;99.90;;;;;;5050538;28;20052;-71
2023/01/31 07:27:50;;;;;;;33.38;9.35;;;5.40;99.90;;;;;;5051715;28;20044;-73
2023/01/31 07:30:16;;;;;;;36.95;9.90;;;5.50;99.90;;;;;;5044980;28;20567;-73
2023/01/31 07:32:41;;;;;;;29.83;8.38;;;5.50;99.90;;;;;;5040274;28;20071;-73
2023/01/31 07:35:08;;;;;;;31.52;9.25;;;5.50;99.90;;;;;;5049357;28;20042;-73
2023/01/31 07:37:34;;;;;;;28.13;8.50;;;5.60;99.90;;;;;;5042382;28;20052;-73
2023/01/31 07:40:00;;;;;;;31.88;8.63;;;5.60;99.90;;;;;;5049040;28;20120;-73
2023/01/31 07:42:27;;;;;;;36.90;9.07;;;5.70;99.90;;;;;;5050217;28;20625;-73
2023/01/31 07:44:53;;;;;;;24.60;7.85;;;5.70;99.90;;;;;;5049596;28;20080;-74
2023/01/31 07:47:19;;;;;;;31.80;8.13;;;5.70;99.90;;;;;;5037111;28;20079;-71
2023/01/31 07:49:45;;;;;;;29.60;7.43;;;5.70;99.90;;;;;;5047106;28;20045;-72
2023/01/31 07:52:11;;;;;;;24.35;7.68;;;5.70;99.90;;;;;;5045066;28;20051;-73
2023/01/31 07:54:36;;;;;;;27.58;8.30;;;5.80;99.90;;;;;;5046288;28;20044;-73
2023/01/31 07:57:02;;;;;;;24.98;6.68;;;5.90;99.90;;;;;;5045169;28;20041;-72
2023/01/31 07:59:28;;;;;;;28.08;7.50;;;5.80;99.90;;;;;;5050733;28;20495;-73
2023/01/31 08:04:38;;;;;;;28.52;6.80;;;5.90;99.90;;;;;;5072651;28;20089;-73
2023/01/31 08:07:09;;;;;;;23.05;7.28;;;5.90;99.90;;;;;;5044315;28;20736;-72
2023/01/31 08:09:37;;;;;;;21.85;6.80;;;6.00;99.90;;;;;;5046171;28;20053;-72
2023/01/31 08:12:04;;;;;;;27.17;7.50;;;5.90;99.90;;;;;;5049881;28;20041;-72
2023/01/31 08:14:30;;;;;;;24.98;7.22;;;5.90;99.90;;;;;;5043802;28;20119;-72
2023/01/31 08:16:56;;;;;;;30.83;8.00;;;5.90;99.90;;;;;;5038652;28;21654;-72
2023/01/31 08:19:22;;;;;;;26.58;7.03;;;6.00;99.90;;;;;;5046346;28;20048;-72
2023/01/31 08:21:48;;;;;;;30.27;7.32;;;6.00;99.90;;;;;;5072817;28;20049;-72
2023/01/31 08:24:14;;;;;;;24.70;6.60;;;6.00;99.90;;;;;;5037557;28;20477;-73
2023/01/31 08:26:42;;;;;;;27.20;7.15;;;6.00;99.90;;;;;;5040439;28;20220;-73
2023/01/31 08:29:08;;;;;;;;;;;6.00;99.90;;;;;;5044510;28;20131;-73
2023/01/31 08:31:34;;;;;;;22.73;7.20;;;6.00;99.90;;;;;;5047609;28;20490;-73
2023/01/31 08:34:00;;;;;;;21.95;6.78;;;6.00;99.90;;;;;;5051190;28;20037;-73
2023/01/31 08:36:30;;;;;;;27.85;7.43;;;6.00;99.90;;;;;;5046148;28;20037;-73
2023/01/31 08:38:59;;;;;;;27.13;6.82;;;6.00;99.90;;;;;;5046418;28;20132;-73
2023/01/31 08:41:26;;;;;;;32.80;8.20;;;6.10;99.90;;;;;;5080841;28;20542;-73
2023/01/31 08:43:54;;;;;;;23.13;6.57;;;6.10;99.90;;;;;;5045527;28;20073;-73
2023/01/31 08:46:20;;;;;;;24.92;7.43;;;6.00;99.90;;;;;;5043250;28;20507;-72
2023/01/31 08:48:46;;;;;;;25.52;8.50;;;6.10;99.90;;;;;;5044894;28;20048;-74
2023/01/31 08:51:13;;;;;;;23.33;7.53;;;6.10;99.90;;;;;;5069719;28;20048;-73
2023/01/31 08:53:43;;;;;;;26.38;6.78;;;6.10;99.90;;;;;;5049237;28;20049;-73
2023/01/31 08:56:10;;;;;;;18.73;6.43;;;6.10;99.90;;;;;;5048181;28;20095;-72
2023/01/31 08:58:38;;;;;;;24.85;7.50;;;6.10;99.90;;;;;;5043016;28;20051;-73
2023/01/31 09:01:06;;;;;;;25.50;7.32;;;6.20;99.90;;;;;;5047044;28;20404;-77
2023/01/31 09:03:32;;;;;;;29.17;8.02;;;6.20;99.90;;;;;;5042534;28;20041;-73
2023/01/31 09:06:03;;;;;;;27.08;7.00;;;6.20;99.90;;;;;;5049342;28;20045;-73
2023/01/31 09:08:30;;;;;;;25.67;7.88;;;6.20;99.90;;;;;;5036138;28;20519;-73
2023/01/31 09:10:59;;;;;;;26.27;7.70;;;6.20;99.90;;;;;;5041101;28;20132;-73
2023/01/31 09:13:25;;;;;;;26.17;8.05;;;6.20;99.90;;;;;;5047817;28;20060;-74
2023/01/31 09:16:03;;;;;;;24.65;7.68;;;6.20;99.90;;;;;;5049101;28;20052;-73
2023/01/31 09:18:29;;;;;;;28.33;7.90;;;6.20;99.90;;;;;;5041857;28;20119;-72
2023/01/31 09:20:55;;;;;;;22.08;6.93;;;6.20;99.90;;;;;;5068167;28;20091;-74
2023/01/31 09:23:22;;;;;;;25.45;7.78;;;6.20;99.90;;;;;;5042604;28;20041;-72
2023/01/31 09:25:53;;;;;;;22.63;7.93;;;6.20;99.90;;;;;;5075598;28;20057;-73
2023/01/31 09:28:19;;;;;;;23.88;8.15;;;6.20;99.90;;;;;;5048406;28;20045;-72
2023/01/31 09:30:45;;;;;;;22.92;7.25;;;6.20;99.90;;;;;;5051777;28;20484;-71
2023/01/31 09:33:11;;;;;;;24.80;7.65;;;6.30;99.90;;;;;;5048478;28;20048;-71
2023/01/31 09:35:36;;;;;;;24.85;7.57;;;6.30;99.90;;;;;;5051667;28;20052;-74
2023/01/31 09:38:02;;;;;;;21.73;7.40;;;6.30;99.90;;;;;;5049079;28;20056;-75
2023/01/31 09:40:31;;;;;;;29.65;7.65;;;6.30;99.90;;;;;;5049979;28;20053;-75
2023/01/31 09:43:00;;;;;;;25.40;7.53;;;6.30;99.90;;;;;;5045884;28;20045;-75
2023/01/31 09:45:30;;;;;;;19.67;7.70;;;6.40;99.90;;;;;;5045481;28;20520;-74
2023/01/31 09:48:00;;;;;;;22.00;7.18;;;6.40;99.90;;;;;;5048044;28;20914;-75
2023/01/31 09:50:28;;;;;;;26.10;7.32;;;6.40;99.90;;;;;;5042715;28;20052;-72
2023/01/31 09:52:54;;;;;;;22.55;6.75;;;6.40;99.90;;;;;;5046614;28;20063;-77
2023/01/31 09:55:33;;;;;;;22.20;7.18;;;6.40;99.90;;;;;;5046754;28;20033;-74
2023/01/31 09:58:13;;;;;;;24.20;7.03;;;6.50;99.90;;;;;;5049697;28;20047;-73
2023/01/31 10:00:46;;;;;;;20.63;6.15;;;6.50;99.90;;;;;;5048423;28;20519;-74
2023/01/31 10:03:35;;;;;;;16.25;5.90;;;6.50;99.90;;;;;;5048414;28;20488;-73
2023/01/31 10:06:20;;;;;;;20.33;5.90;;;6.60;99.90;;;;;;5046131;28;20091;-76
2023/01/31 10:09:01;;;;;;;20.83;5.07;;;6.60;99.90;;;;;;5047720;28;20033;-72
2023/01/31 10:11:35;;;;;;;21.35;5.78;;;6.70;99.90;;;;;;5046754;28;20056;-73
2023/01/31 10:14:26;;;;;;;23.95;5.30;;;6.70;99.90;;;;;;5049397;28;20480;-75
2023/01/31 10:17:12;;;;;;;20.15;5.93;;;6.80;99.90;;;;;;5050676;28;20052;-74
2023/01/31 10:20:08;;;;;;;17.58;5.40;;;6.80;99.90;;;;;;5050238;28;20045;-74
2023/01/31 10:22:45;;;;;;;20.77;5.63;;;6.80;99.90;;;;;;5048667;28;20590;-73
2023/01/31 10:25:25;;;;;;;19.73;6.07;;;6.80;99.90;;;;;;5043109;28;20060;-75
2023/01/31 10:28:01;;;;;;;18.50;5.13;;;6.80;99.90;;;;;;5047225;28;20037;-74
2023/01/31 10:30:39;;;;;;;23.40;6.43;;;6.90;99.90;;;;;;5043981;28;20049;-74
2023/01/31 10:33:22;;;;;;;22.42;6.10;;;6.80;99.90;;;;;;5041461;28;20143;-74
2023/01/31 10:35:53;;;;;;;18.20;5.15;;;6.80;99.90;;;;;;5075260;28;20139;-76
2023/01/31 10:38:39;;;;;;;22.10;5.85;;;6.90;99.90;;;;;;5037136;28;20069;-73
2023/01/31 10:41:20;;;;;;;26.77;7.10;;;6.90;99.90;;;;;;5049692;28;20049;-73
2023/01/31 10:43:52;;;;;;;22.17;5.30;;;6.90;99.90;;;;;;5045374;28;20052;-71
2023/01/31 10:46:18;;;;;;;17.60;5.95;;;6.90;99.90;;;;;;5078317;28;20106;-76
2023/01/31 10:48:46;;;;;;;21.20;5.20;;;6.90;99.90;;;;;;5050761;28;20029;-75
2023/01/31 10:51:37;;;;;;;23.15;6.13;;;6.90;99.90;;;;;;5048236;28;20128;-75
2023/01/31 10:54:46;;;;;;;21.42;5.78;;;6.90;99.90;;;;;;5048293;28;20049;-74
2023/01/31 10:57:12;;;;;;;25.80;5.60;;;6.80;99.90;;;;;;5027463;28;20056;-75
2023/01/31 10:59:44;;;;;;;22.73;4.88;;;6.90;99.90;;;;;;5047880;28;20056;-74
2023/01/31 11:02:26;;;;;;;19.42;5.25;;;6.90;99.90;;;;;;5043819;28;20048;-74
2023/01/31 11:04:55;;;;;;;19.20;5.18;;;6.90;99.90;;;;;;5048335;28;20045;-78
2023/01/31 11:07:22;;;;;;;20.48;5.82;;;6.90;99.90;;;;;;5050251;28;20080;-77
2023/01/31 11:09:53;;;;;;;20.83;5.68;;;6.90;99.90;;;;;;5050873;28;20053;-76
2023/01/31 11:12:38;;;;;;;20.05;5.80;;;6.90;99.90;;;;;;5048475;28;20079;-75
2023/01/31 11:15:18;;;;;;;27.55;6.72;;;6.90;99.90;;;;;;5050027;28;20053;-71
2023/01/31 11:17:45;;;;;;;21.50;5.70;;;6.90;99.90;;;;;;5049779;28;20048;-76
2023/01/31 11:20:44;;;;;;;19.55;5.72;;;6.80;99.90;;;;;;5050028;28;20068;-71
2023/01/31 11:23:13;;;;;;;25.88;6.10;;;6.80;99.90;;;;;;5039784;28;20076;-66
2023/01/31 11:25:47;;;;;;;24.00;6.57;;;6.80;99.90;;;;;;5040513;28;20055;-75
2023/01/31 11:28:36;;;;;;;23.75;6.80;;;6.80;99.90;;;;;;5051554;28;20091;-73
2023/01/31 11:31:04;;;;;;;21.50;6.57;;;6.80;99.90;;;;;;5051665;28;20568;-74
2023/01/31 11:33:39;;;;;;;21.52;6.40;;;6.80;99.90;;;;;;5049077;28;20048;-75
2023/01/31 11:36:14;;;;;;;19.98;6.15;;;6.80;99.90;;;;;;5049229;28;20088;-74
2023/01/31 11:38:41;;;;;;;18.95;6.60;;;6.80;99.90;;;;;;5043880;28;20057;-75
2023/01/31 11:41:25;;;;;;;28.67;7.00;;;6.70;99.90;;;;;;5049673;28;20481;-75
2023/01/31 11:44:12;;;;;;;24.42;7.10;;;6.70;99.90;;;;;;5039538;28;20048;-76
2023/01/31 11:47:02;;;;;;;18.30;6.55;;;6.70;99.90;;;;;;5082628;28;20171;-73
2023/01/31 11:49:34;;;;;;;22.08;7.43;;;6.80;99.90;;;;;;5048572;28;20305;-73
2023/01/31 11:52:19;;;;;;;26.67;8.32;;;6.70;99.90;;;;;;5051186;28;20068;-79
2023/01/31 11:55:00;;;;;;;24.08;7.70;;;6.70;99.90;;;;;;5049590;28;20044;-80
2023/01/31 11:57:31;;;;;;;24.70;7.57;;;6.80;99.90;;;;;;5042360;28;20055;-74
2023/01/31 11:59:59;;;;;;;22.13;7.82;;;6.70;99.90;;;;;;5049994;28;20056;-76
2023/01/31 12:02:40;;;;;;;22.20;8.05;;;6.70;99.90;;;;;;5043063;28;20373;-73
2023/01/31 12:05:14;;;;;;;30.98;8.20;;;6.80;99.90;;;;;;5042315;28;20473;-77
2023/01/31 12:07:44;;;;;;;26.42;9.13;;;6.80;99.90;;;;;;5048645;28;20043;-76
2023/01/31 12:10:35;;;;;;;20.13;7.88;;;6.80;99.90;;;;;;5051737;28;20567;-76
2023/01/31 12:13:11;;;;;;;25.17;8.18;;;6.80;99.90;;;;;;5044156;28;20037;-74
2023/01/31 12:15:50;;;;;;;24.75;7.72;;;6.80;99.90;;;;;;5047767;28;20053;-74
2023/01/31 12:18:28;;;;;;;24.67;8.93;;;6.80;99.90;;;;;;5046088;28;20397;-73
2023/01/31 12:21:15;;;;;;;23.52;8.15;;;6.80;99.90;;;;;;5051188;28;20098;-74
2023/01/31 12:23:53;;;;;;;25.45;8.60;;;6.90;99.90;;;;;;5052590;28;20048;-75
2023/01/31 12:26:25;;;;;;;28.48;8.27;;;6.90;99.90;;;;;;5052770;28;20048;-71
2023/01/31 12:29:12;;;;;;;28.58;7.70;;;6.90;99.90;;;;;;5049796;28;20527;-73
2023/01/31 12:32:03;;;;;;;24.00;7.38;;;7.00;99.90;;;;;;5047857;28;20455;-77
2023/01/31 12:34:34;;;;;;;32.40;8.30;;;7.00;99.90;;;;;;5052408;28;20041;-78
2023/01/31 12:37:11;;;;;;;26.52;8.40;;;7.10;99.90;;;;;;5024973;28;20060;-78
2023/01/31 12:39:51;;;;;;;27.08;7.68;;;7.20;99.90;;;;;;5044465;28;20041;-76
2023/01/31 12:42:40;;;;;;;25.73;7.40;;;7.20;99.90;;;;;;5046392;28;20052;-76
2023/01/31 12:45:20;;;;;;;22.48;6.07;;;7.20;99.90;;;;;;5071659;28;20403;-80
2023/01/31 12:48:20;;;;;;;28.20;7.40;;;7.30;99.90;;;;;;5041316;28;20187;-79
2023/01/31 12:50:55;;;;;;;26.20;6.38;;;7.30;99.90;;;;;;5031576;28;20513;-78
2023/01/31 12:53:49;;;;;;;22.45;6.70;;;7.30;99.90;;;;;;5042186;28;20055;-76
2023/01/31 12:57:04;;;;;;;20.13;6.18;;;7.40;99.90;;;;;;5039626;28;20101;-77
2023/01/31 12:59:41;;;;;;;24.25;5.57;;;7.40;99.90;;;;;;5044021;28;20053;-72
2023/01/31 13:02:06;;;;;;;24.17;5.93;;;7.50;99.90;;;;;;5049548;28;20048;-75
2023/01/31 13:04:54;;;;;;;23.60;5.80;;;7.50;99.90;;;;;;5046500;28;20546;-74
2023/01/31 13:07:33;;;;;;;28.25;6.20;;;7.50;99.90;;;;;;5044001;28;20049;-75
2023/01/31 13:10:02;;;;;;;19.08;5.03;;;7.50;99.90;;;;;;5050378;28;20044;-76
2023/01/31 13:12:31;;;;;;;19.90;5.43;;;7.50;99.90;;;;;;5042959;28;20532;-74
2023/01/31 13:15:05;;;;;;;19.83;5.25;;;7.50;99.90;;;;;;5044270;28;20568;-77
2023/01/31 13:17:36;;;;;;;23.02;6.18;;;7.60;99.90;;;;;;5039871;28;20064;-75
2023/01/31 13:20:11;;;;;;;22.40;5.60;;;7.60;99.90;;;;;;5046627;28;20064;-72